Time;durP1;ratioP1;P1;durP2;ratioP2;P2;SDS_P1;SDS_P2;PMS_P1;PMS_P2;Temp;Humidity;BMP_temperature;BMP_pressure;BME280_temperature;BME280_humidity;BME280_pressure;Samples;Min_cycle;Max_cycle;Signal;HPM_P1;HPM_P2
2022/05/09 00:00:32;;;;;;;5.65;2.40;;;;;;;8.99;89.07;97516.84;5047108;28;20052;-64
2022/05/09 00:02:59;;;;;;;6.00;1.70;;;;;;;8.66;88.60;97464.53;5047243;28;20060;-63
2022/05/09 00:05:27;;;;;;;9.15;2.17;;;;;;;9.12;86.90;97515.66;5046953;28;20072;-63
2022/05/09 00:07:54;;;;;;;4.85;1.98;;;;;;;9.10;87.62;97506.94;5046876;28;20060;-63
2022/05/09 00:10:24;;;;;;;8.38;2.20;;;;;;;8.94;88.18;97512.38;5047133;28;20056;-64
2022/05/09 00:12:51;;;;;;;4.18;2.20;;;;;;;8.86;87.12;97479.34;5046639;28;20482;-63
2022/05/09 00:15:19;;;;;;;4.57;2.22;;;;;;;8.95;86.18;97499.34;5047166;28;20059;-63
2022/05/09 00:17:45;;;;;;;4.38;1.80;;;;;;;8.61;87.08;97475.03;5047295;28;20052;-63
2022/05/09 00:20:15;;;;;;;9.35;2.10;;;;;;;8.97;87.86;97513.63;5047089;28;20090;-63
2022/05/09 00:22:47;;;;;;;7.72;2.08;;;;;;;8.82;87.87;97511.59;5046369;28;20122;-64
2022/05/09 00:25:14;;;;;;;5.63;1.85;;;;;;;8.81;88.46;97515.50;5044707;28;20339;-64
2022/05/09 00:27:40;;;;;;;4.10;2.22;;;;;;;8.76;88.55;97516.53;5047107;28;20052;-65
2022/05/09 00:30:08;;;;;;;3.67;2.22;;;;;;;8.85;88.01;97505.38;5045162;28;20067;-64
2022/05/09 00:32:35;;;;;;;5.07;1.80;;;;;;;8.68;88.65;97500.09;5046910;28;20051;-64
2022/05/09 00:35:03;;;;;;;5.63;1.90;;;;;;;8.54;88.61;97528.06;5046535;28;20499;-64
2022/05/09 00:37:30;;;;;;;3.05;1.70;;;;;;;8.60;88.87;97517.59;5046199;28;20065;-63
2022/05/09 00:39:56;;;;;;;4.15;1.80;;;;;;;8.45;89.53;97518.28;5046330;28;20060;-63
2022/05/09 00:42:23;;;;;;;4.13;2.33;;;;;;;8.47;89.25;97521.50;5046175;28;20052;-63
2022/05/09 00:44:50;;;;;;;6.03;1.90;;;;;;;8.32;90.37;97536.78;5045027;28;20056;-60
2022/05/09 00:47:17;;;;;;;7.75;2.15;;;;;;;8.16;90.31;97477.88;5044801;28;20057;-61
2022/05/09 00:49:50;;;;;;;6.22;2.10;;;;;;;8.10;89.93;97461.88;5045389;28;20442;-59
2022/05/09 00:52:29;;;;;;;4.22;1.70;;;;;;;8.44;89.69;97511.16;5046259;28;20057;-60
2022/05/09 00:55:01;;;;;;;7.95;2.13;;;;;;;8.43;89.59;97515.06;5046607;28;20057;-61
2022/05/09 00:57:35;;;;;;;5.18;1.55;;;;;;;8.38;90.13;97518.03;5045025;28;20539;-60
2022/05/09 01:00:15;;;;;;;4.88;2.20;;;;;;;8.14;91.95;97512.50;5045868;28;20061;-59
2022/05/09 01:02:46;;;;;;;3.90;2.00;;;;;;;8.29;90.60;97501.59;5045943;28;20075;-60
2022/05/09 01:05:15;;;;;;;4.85;1.98;;;;;;;8.36;89.66;97504.59;5044582;28;20060;-59
2022/05/09 01:07:43;;;;;;;4.97;1.52;;;;;;;8.19;91.10;97504.00;5046001;28;20045;-60
2022/05/09 01:10:11;;;;;;;4.03;1.90;;;;;;;8.21;91.06;97507.19;5045713;28;20522;-60
2022/05/09 01:12:40;;;;;;;4.90;1.92;;;;;;;8.06;91.12;97491.31;5045613;28;20053;-59
2022/05/09 01:15:12;;;;;;;5.63;2.00;;;;;;;8.02;92.13;97512.44;5044191;28;20060;-59
2022/05/09 01:17:40;;;;;;;4.55;2.00;;;;;;;8.16;91.38;97499.13;5045692;28;20065;-62
2022/05/09 01:20:10;;;;;;;5.40;1.95;;;;;;;8.15;90.77;97511.31;5045489;28;20478;-62
2022/05/09 01:22:40;;;;;;;6.28;1.70;;;;;;;7.73;89.99;97442.53;5054763;28;20357;-60
2022/05/09 01:25:10;;;;;;;3.67;1.70;;;;;;;8.20;89.31;97505.59;5043684;28;20064;-59
2022/05/09 01:27:40;;;;;;;5.03;1.65;;;;;;;8.04;89.01;97480.63;5046259;28;20421;-59
2022/05/09 01:30:31;;;;;;;4.35;1.90;;;;;;;8.08;88.64;97517.41;5043972;28;20543;-59
2022/05/09 01:33:04;;;;;;;3.17;1.90;;;;;;;7.57;89.91;97469.16;5045381;28;20052;-59
2022/05/09 01:35:38;;;;;;;3.03;1.85;;;;;;;7.91;90.13;97508.53;5045250;28;20119;-59
2022/05/09 01:38:13;;;;;;;4.22;2.22;;;;;;;7.84;90.73;97508.28;5045765;28;20102;-62
2022/05/09 01:40:40;;;;;;;3.17;1.52;;;;;;;7.23;90.96;97389.59;5043866;28;20060;-60
2022/05/09 01:43:07;;;;;;;4.55;2.05;;;;;;;8.01;89.66;97513.59;5045179;28;20672;-59
2022/05/09 01:45:34;;;;;;;4.95;2.15;;;;;;;7.93;89.74;97500.72;5044968;28;20111;-59
2022/05/09 01:50:47;;;;;;;20.45;5.20;;;;;;;7.71;92.48;97499.19;5045540;28;20045;-59
2022/05/09 01:53:14;;;;;;;15.35;5.45;;;;;;;7.72;92.33;97476.78;5043946;28;20060;-59
2022/05/09 01:55:41;;;;;;;13.55;3.70;;;;;;;7.91;90.64;97495.53;5043561;28;20072;-60
2022/05/09 01:58:08;;;;;;;9.80;3.17;;;;;;;7.76;90.69;97474.16;5045140;28;20056;-58
2022/05/09 02:00:34;;;;;;;6.75;2.80;;;;;;;7.45;90.95;97440.75;5044851;28;20103;-62
2022/05/09 02:03:01;;;;;;;5.05;2.17;;;;;;;7.50;91.48;97438.59;5044698;28;20111;-60
2022/05/09 02:05:28;;;;;;;3.42;1.98;;;;;;;7.90;89.95;97512.44;5043404;28;20060;-59
2022/05/09 02:07:55;;;;;;;5.68;2.30;;;;;;;7.86;89.78;97505.97;5045945;28;20643;-59
2022/05/09 02:10:21;;;;;;;3.40;1.67;;;;;;;7.89;89.88;97494.28;5044701;28;20408;-59
2022/05/09 02:12:49;;;;;;;8.93;1.90;;;;;;;7.79;90.62;97495.53;5042999;28;20052;-59
2022/05/09 02:15:16;;;;;;;5.45;2.10;;;;;;;7.52;89.19;97447.31;5044428;28;20824;-59
2022/05/09 02:17:45;;;;;;;3.35;2.00;;;;;;;7.74;89.78;97498.50;5044170;28;20065;-60
2022/05/09 02:20:12;;;;;;;2.63;1.50;;;;;;;7.18;89.52;97403.59;5044570;28;20599;-58
2022/05/09 02:22:39;;;;;;;6.10;1.88;;;;;;;7.44;89.38;97451.00;5044383;28;20064;-62
2022/05/09 02:25:26;;;;;;;3.92;1.55;;;;;;;7.64;90.47;97499.75;5043885;28;20071;-59
2022/05/09 02:27:53;;;;;;;7.18;1.80;;;;;;;7.15;91.12;97442.84;5044294;28;20057;-59
2022/05/09 02:30:20;;;;;;;4.45;1.65;;;;;;;7.49;91.79;97514.16;5044620;28;20148;-60
2022/05/09 02:32:47;;;;;;;3.60;2.00;;;;;;;7.47;91.97;97505.44;5044439;28;20444;-61
2022/05/09 02:35:15;;;;;;;5.30;2.42;;;;;;;7.56;91.37;97508.91;5042603;28;20048;-59
2022/05/09 02:37:41;;;;;;;3.92;1.63;;;;;;;7.52;91.18;97507.94;5044384;28;20059;-59
2022/05/09 02:40:08;;;;;;;3.45;1.48;;;;;;;7.56;90.34;97503.38;5043898;28;20060;-62
2022/05/09 02:42:35;;;;;;;3.60;1.50;;;;;;;7.56;90.25;97508.91;5042724;28;20053;-59
2022/05/09 02:45:03;;;;;;;4.28;1.45;;;;;;;7.26;91.66;97482.59;5042766;28;20451;-60
2022/05/09 02:47:29;;;;;;;3.33;1.85;;;;;;;7.07;92.72;97457.50;5043987;28;20119;-60
2022/05/09 02:49:56;;;;;;;5.22;1.73;;;;;;;7.40;91.58;97494.13;5043953;28;20174;-59
2022/05/09 02:52:23;;;;;;;5.15;1.90;;;;;;;6.92;91.27;97411.31;5044037;28;20056;-60
2022/05/09 02:54:49;;;;;;;2.95;1.63;;;;;;;7.55;90.72;97525.78;5043874;28;20053;-58
2022/05/09 02:57:16;;;;;;;2.35;1.30;;;;;;;7.37;90.54;97486.53;5043735;28;20526;-59
2022/05/09 02:59:43;;;;;;;6.03;1.45;;;;;;;7.54;89.75;97511.19;5044505;28;20863;-59
2022/05/09 03:02:10;;;;;;;5.70;1.50;;;;;;;7.46;90.08;97523.09;5043791;28;20056;-59
2022/05/09 03:04:39;;;;;;;3.45;1.73;;;;;;;6.94;90.82;97453.06;5043586;28;20060;-59
2022/05/09 03:07:13;;;;;;;9.70;1.52;;;;;;;6.98;90.68;97476.06;5041904;28;20052;-59
2022/05/09 03:09:42;;;;;;;3.05;1.63;;;;;;;7.23;91.27;97516.34;5043797;28;20083;-58
2022/05/09 03:12:10;;;;;;;3.13;1.85;;;;;;;6.60;90.48;97398.28;5042125;28;20508;-59
2022/05/09 03:14:38;;;;;;;4.30;1.77;;;;;;;7.27;90.04;97500.72;5043897;28;20064;-59
2022/05/09 03:17:07;;;;;;;5.68;2.78;;;;;;;7.29;90.74;97520.50;5043968;28;20048;-59
2022/05/09 03:19:34;;;;;;;4.65;2.08;;;;;;;7.21;91.34;97513.09;5043600;28;20126;-59
2022/05/09 03:22:01;;;;;;;4.85;2.40;;;;;;;7.34;90.84;97516.72;5043123;28;20466;-59
2022/05/09 03:24:28;;;;;;;3.97;1.90;;;;;;;7.43;88.03;97523.78;5043165;28;20443;-59
2022/05/09 03:26:54;;;;;;;6.20;2.08;;;;;;;7.07;88.99;97471.25;5043496;28;20059;-61
2022/05/09 03:29:24;;;;;;;5.20;2.17;;;;;;;7.54;89.27;97530.47;5042390;28;20962;-58
2022/05/09 03:31:52;;;;;;;4.55;2.05;;;;;;;7.11;88.40;97457.63;5043406;28;20056;-59
2022/05/09 03:34:20;;;;;;;8.60;2.65;;;;;;;7.09;88.83;97466.22;5042641;28;20133;-58
2022/05/09 03:36:47;;;;;;;4.68;2.28;;;;;;;7.35;89.81;97532.91;5042114;28;20060;-59
2022/05/09 03:39:14;;;;;;;10.85;2.60;;;;;;;7.53;90.17;97536.31;5041376;28;20640;-61
2022/05/09 03:41:41;;;;;;;6.32;2.30;;;;;;;7.62;89.59;97557.16;5043056;28;20102;-58
2022/05/09 03:44:07;;;;;;;9.70;3.50;;;;;;;7.71;88.09;97533.06;5043027;28;20053;-61
2022/05/09 03:46:36;;;;;;;7.07;3.38;;;;;;;7.74;87.98;97540.66;5041699;28;20506;-60
2022/05/09 03:49:04;;;;;;;6.05;2.67;;;;;;;7.69;88.40;97507.78;5043625;28;20049;-59
2022/05/09 03:51:31;;;;;;;6.30;2.15;;;;;;;7.94;86.99;97540.94;5043218;28;20053;-58
2022/05/09 03:53:57;;;;;;;4.25;1.83;;;;;;;7.99;86.33;97535.19;5042007;28;20049;-58
2022/05/09 03:56:24;;;;;;;5.85;1.60;;;;;;;7.95;86.84;97534.28;5043219;28;20064;-58
2022/05/09 03:58:50;;;;;;;5.38;2.00;;;;;;;8.09;87.22;97543.06;5043187;28;20478;-58
2022/05/09 04:01:17;;;;;;;5.45;2.10;;;;;;;7.97;86.55;97519.00;5042125;28;20079;-60
2022/05/09 04:03:46;;;;;;;2.38;1.30;;;;;;;8.32;85.76;97547.00;5048908;28;20063;-59
2022/05/09 04:06:13;;;;;;;7.65;3.17;;;;;;;8.36;85.69;97534.94;5041666;28;20420;-58
2022/05/09 04:08:39;;;;;;;4.63;2.05;;;;;;;8.44;84.63;97511.94;5041870;28;20068;-59
2022/05/09 04:11:06;;;;;;;5.72;2.30;;;;;;;8.68;83.44;97560.84;5041670;28;20049;-58
2022/05/09 04:13:33;;;;;;;2.55;1.50;;;;;;;8.55;84.01;97534.41;5041446;28;20057;-58
2022/05/09 04:18:45;;;;;;;6.85;3.20;;;;;;;8.96;82.61;97540.44;5042954;28;20053;-63
2022/05/09 04:21:13;;;;;;;42.03;17.02;;;;;;;9.08;82.66;97536.88;5043751;28;20045;-63
2022/05/09 04:23:40;;;;;;;18.40;6.78;;;;;;;8.58;83.06;97453.63;5061230;28;20071;-63
2022/05/09 04:26:10;;;;;;;9.70;3.97;;;;;;;9.37;82.63;97539.34;5062363;28;20048;-64
2022/05/09 04:28:36;;;;;;;5.35;2.83;;;;;;;9.73;81.24;97538.38;5061469;28;20147;-65
2022/05/09 04:31:03;;;;;;;5.22;2.70;;;;;;;9.96;79.37;97533.88;5063620;28;20059;-61
2022/05/09 04:33:30;;;;;;;4.10;2.40;;;;;;;9.31;77.76;97391.44;5066429;28;20118;-59
2022/05/09 04:35:58;;;;;;;6.18;2.88;;;;;;;9.91;77.69;97471.28;5065003;28;20606;-65
2022/05/09 04:38:26;;;;;;;8.48;2.95;;;;;;;10.52;77.11;97536.22;5065409;28;20519;-63
2022/05/09 04:40:54;;;;;;;9.18;3.03;;;;;;;10.46;76.15;97504.38;5066125;28;20134;-59
2022/05/09 04:43:28;;;;;;;9.25;3.13;;;;;;;10.89;75.61;97533.91;5066547;28;20056;-60
2022/05/09 04:45:58;;;;;;;5.13;2.65;;;;;;;11.12;74.44;97536.81;5064901;28;20052;-64
2022/05/09 04:48:25;;;;;;;7.22;2.72;;;;;;;11.20;74.09;97538.59;5064871;28;20054;-65
2022/05/09 04:50:51;;;;;;;6.30;3.00;;;;;;;11.46;73.58;97533.25;5065753;28;20056;-66
2022/05/09 04:53:18;;;;;;;4.97;3.00;;;;;;;11.78;73.07;97537.50;5056661;28;20045;-66
2022/05/09 04:55:46;;;;;;;6.93;3.38;;;;;;;11.93;73.07;97539.41;5045659;28;20052;-63
2022/05/09 04:58:14;;;;;;;6.68;3.20;;;;;;;12.03;73.12;97538.78;5044757;28;20060;-66
2022/05/09 05:00:42;;;;;;;5.28;2.30;;;;;;;11.72;74.03;97489.00;5045634;28;20053;-64
2022/05/09 05:03:09;;;;;;;4.25;2.47;;;;;;;12.12;73.17;97536.59;5044123;28;20538;-65
2022/05/09 05:05:36;;;;;;;6.55;2.88;;;;;;;11.80;73.68;97479.66;5046098;28;20114;-67
2022/05/09 05:08:03;;;;;;;6.25;2.25;;;;;;;11.05;79.19;97514.50;5044654;28;20049;-64
2022/05/09 05:10:32;;;;;;;4.70;2.75;;;;;;;11.44;77.18;97507.81;5045811;28;20443;-64
2022/05/09 05:13:02;;;;;;;4.18;2.42;;;;;;;12.02;76.28;97537.19;5044024;28;20542;-64
2022/05/09 05:15:30;;;;;;;4.72;2.50;;;;;;;11.47;79.18;97537.59;5044123;28;20526;-60
2022/05/09 05:17:58;;;;;;;4.43;2.17;;;;;;;11.49;79.97;97535.28;5045329;28;20536;-59
2022/05/09 05:20:24;;;;;;;8.02;2.63;;;;;;;11.46;78.02;97488.84;5044197;28;20057;-60
2022/05/09 05:22:52;;;;;;;3.33;2.03;;;;;;;11.93;76.26;97539.41;5045526;28;20060;-59
2022/05/09 05:25:22;;;;;;;4.93;2.65;;;;;;;11.43;76.53;97478.50;5045085;28;20056;-64
2022/05/09 05:27:49;;;;;;;5.75;2.40;;;;;;;11.77;75.24;97535.91;5044092;28;20068;-63
2022/05/09 05:30:16;;;;;;;3.92;2.42;;;;;;;12.31;73.95;97536.56;5045329;28;20059;-64
2022/05/09 05:32:44;;;;;;;5.93;2.22;;;;;;;12.48;71.53;97511.03;5046166;28;20063;-64
2022/05/09 05:35:14;;;;;;;7.50;2.50;;;;;;;12.31;71.23;97532.97;5045852;28;20115;-64
2022/05/09 05:37:41;;;;;;;5.00;1.90;;;;;;;12.75;70.70;97539.69;5044062;28;20106;-65
2022/05/09 05:40:09;;;;;;;6.38;2.75;;;;;;;13.06;68.73;97531.88;5047668;28;20130;-63
2022/05/09 05:42:40;;;;;;;6.35;2.40;;;;;;;12.95;68.99;97502.25;5046655;28;20060;-60
2022/05/09 05:45:09;;;;;;;6.40;2.40;;;;;;;13.43;69.09;97541.16;5046108;28;20059;-62
2022/05/09 05:47:36;;;;;;;6.38;2.17;;;;;;;13.09;70.56;97524.75;5050159;28;20052;-62
2022/05/09 05:50:05;;;;;;;9.93;4.10;;;;;;;13.36;68.89;97541.06;5051278;28;20048;-63
2022/05/09 05:52:32;;;;;;;5.40;2.55;;;;;;;13.28;69.48;97522.66;5048531;28;20114;-65
2022/05/09 05:54:59;;;;;;;4.82;2.45;;;;;;;12.79;70.75;97496.84;5058521;28;20498;-63
2022/05/09 05:57:28;;;;;;;4.45;2.15;;;;;;;13.38;69.81;97543.47;5055903;28;20060;-67
2022/05/09 05:59:58;;;;;;;4.00;2.45;;;;;;;13.19;69.06;97546.38;5053802;28;20061;-60
2022/05/09 06:02:26;;;;;;;5.28;2.80;;;;;;;13.28;70.15;97546.88;5059539;28;20056;-65
2022/05/09 06:04:54;;;;;;;4.65;1.92;;;;;;;12.99;69.22;97470.53;5062824;28;20052;-64
2022/05/09 06:07:22;;;;;;;4.10;1.98;;;;;;;13.53;67.98;97540.50;5051545;28;20067;-61
2022/05/09 06:09:52;;;;;;;5.35;1.92;;;;;;;12.97;69.76;97486.81;5058532;28;20045;-67
2022/05/09 06:12:22;;;;;;;5.43;2.60;;;;;;;13.75;67.54;97538.00;5045812;28;20049;-63
2022/05/09 06:17:39;;;;;;;7.72;2.80;;;;;;;14.18;66.57;97548.47;5049326;28;20041;-61
2022/05/09 06:20:09;;;;;;;5.43;2.30;;;;;;;14.29;66.21;97538.25;5053848;28;20052;-60
2022/05/09 06:22:38;;;;;;;4.18;2.30;;;;;;;14.82;63.92;97534.78;5058417;28;20049;-64
2022/05/09 06:25:14;;;;;;;5.45;2.55;;;;;;;15.20;62.32;97530.69;5052005;28;20068;-65
2022/05/09 06:27:41;;;;;;;4.25;2.65;;;;;;;15.58;61.41;97538.53;5053326;28;20056;-66
2022/05/09 06:30:11;;;;;;;4.55;2.22;;;;;;;14.54;63.38;97500.28;5056125;28;20573;-63
2022/05/09 06:32:39;;;;;;;6.13;2.42;;;;;;;15.20;61.26;97522.31;5053401;28;20131;-60
2022/05/09 06:35:09;;;;;;;5.45;2.60;;;;;;;15.63;60.56;97518.59;5052842;28;20160;-61
2022/05/09 06:37:38;;;;;;;4.28;1.80;;;;;;;16.00;58.86;97524.72;5051983;28;20079;-61
2022/05/09 06:40:07;;;;;;;2.50;1.80;;;;;;;16.14;58.20;97527.56;5054875;28;20057;-59
2022/05/09 06:42:35;;;;;;;4.20;2.15;;;;;;;16.34;57.09;97526.00;5048118;28;20044;-61
2022/05/09 06:45:02;;;;;;;3.90;3.50;;;;;;;16.46;56.51;97506.13;5055838;28;20049;-58
2022/05/09 06:47:29;;;;;;;4.28;2.35;;;;;;;16.75;56.21;97525.72;5048855;28;20442;-60
2022/05/09 06:50:05;;;;;;;4.35;2.28;;;;;;;17.06;55.18;97517.31;5057906;28;20059;-60
2022/05/09 06:52:34;;;;;;;2.58;2.00;;;;;;;17.25;54.33;97511.28;5057157;28;20132;-60
2022/05/09 06:55:00;;;;;;;4.28;2.17;;;;;;;17.50;53.54;97570.09;5047214;28;20169;-59
2022/05/09 06:57:27;;;;;;;7.80;2.13;;;;;;;17.45;52.23;97501.28;5049016;28;20136;-60
2022/05/09 06:59:54;;;;;;;3.25;2.20;;;;;;;17.62;52.69;97499.63;5049896;28;20049;-60
2022/05/09 07:02:21;;;;;;;3.38;2.08;;;;;;;17.82;50.78;97458.72;5051726;28;20056;-62
2022/05/09 07:04:48;;;;;;;5.65;2.80;;;;;;;17.99;50.71;97458.63;5053101;28;20515;-61
2022/05/09 07:07:14;;;;;;;5.55;2.40;;;;;;;16.70;52.14;97335.88;5053465;28;20045;-62
2022/05/09 07:09:41;;;;;;;4.80;2.60;;;;;;;17.84;51.18;97482.34;5050852;28;20071;-61
2022/05/09 07:12:08;;;;;;;12.43;3.95;;;;;;;18.34;51.42;97512.91;5053653;28;20063;-61
2022/05/09 07:14:35;;;;;;;2.10;1.90;;;;;;;18.15;50.45;97472.16;5054365;28;20048;-62
2022/05/09 07:17:02;;;;;;;3.80;2.35;;;;;;;18.08;49.84;97444.19;5061545;28;20120;-60
2022/05/09 07:19:29;;;;;;;7.38;2.88;;;;;;;18.31;49.97;97514.53;5054413;28;20052;-58
2022/05/09 07:21:56;;;;;;;4.07;2.28;;;;;;;18.62;50.42;97510.75;5052644;28;20443;-61
2022/05/09 07:24:24;;;;;;;5.22;2.63;;;;;;;18.13;51.39;97513.81;5053106;28;20060;-61
2022/05/09 07:26:51;;;;;;;5.07;2.47;;;;;;;18.39;50.65;97521.72;5047034;28;20063;-61
2022/05/09 07:29:17;;;;;;;4.43;2.22;;;;;;;18.04;51.03;97510.66;5052221;28;20083;-60
2022/05/09 07:31:44;;;;;;;6.80;2.40;;;;;;;18.44;51.02;97518.50;5052564;28;20045;-63
2022/05/09 07:34:11;;;;;;;4.05;2.40;;;;;;;17.58;51.63;97482.03;5059712;28;20127;-60
2022/05/09 07:36:37;;;;;;;4.05;2.35;;;;;;;17.99;52.30;97500.69;5055901;28;20048;-61
2022/05/09 07:39:05;;;;;;;7.68;2.70;;;;;;;18.06;52.30;97513.88;5047158;28;20089;-60
2022/05/09 07:41:32;;;;;;;3.83;2.72;;;;;;;17.77;51.66;97398.28;5052433;28;20052;-61
2022/05/09 07:43:58;;;;;;;5.05;2.47;;;;;;;18.55;50.32;97481.94;5054104;28;20052;-61
2022/05/09 07:46:25;;;;;;;5.80;3.58;;;;;;;18.87;49.38;97513.38;5055869;28;20068;-58
2022/05/09 07:49:12;;;;;;;7.80;3.97;;;;;;;18.83;49.67;97485.34;5051227;28;20450;-58
2022/05/09 07:51:39;;;;;;;5.18;2.92;;;;;;;19.27;48.97;97512.63;5051220;28;20060;-63
2022/05/09 07:54:07;;;;;;;5.90;2.78;;;;;;;19.52;49.47;97511.19;5055966;28;20052;-62
2022/05/09 07:56:40;;;;;;;4.22;2.50;;;;;;;19.40;48.67;97475.19;5049263;28;20159;-60
2022/05/09 07:59:06;;;;;;;3.65;2.10;;;;;;;18.83;49.25;97499.38;5046236;28;20056;-58
2022/05/09 08:01:33;;;;;;;7.07;2.70;;;;;;;18.66;50.65;97508.72;5054388;28;20045;-62
2022/05/09 08:04:04;;;;;;;4.20;2.35;;;;;;;19.36;48.71;97547.47;5058585;28;20053;-62
2022/05/09 08:06:31;;;;;;;6.57;2.00;;;;;;;19.63;47.61;97499.03;5060124;28;20299;-65
2022/05/09 08:09:00;;;;;;;3.65;2.72;;;;;;;19.80;46.96;97543.81;5061442;28;20437;-61
2022/05/09 08:11:27;;;;;;;4.70;2.50;;;;;;;20.11;46.34;97513.69;5057304;28;20083;-57
2022/05/09 08:13:53;;;;;;;3.03;2.80;;;;;;;20.39;46.64;97513.38;5053000;28;20153;-59
2022/05/09 08:16:20;;;;;;;3.88;2.60;;;;;;;20.09;45.37;97431.78;5057267;28;20508;-59
2022/05/09 08:18:48;;;;;;;3.33;2.40;;;;;;;20.63;45.17;97506.56;5054236;28;20123;-60
2022/05/09 08:21:15;;;;;;;3.35;2.17;;;;;;;20.78;44.98;97507.97;5053997;28;20068;-60
2022/05/09 08:23:45;;;;;;;5.07;2.38;;;;;;;20.59;45.52;97488.94;5059492;28;20595;-60
2022/05/09 08:26:12;;;;;;;5.60;2.60;;;;;;;20.95;45.19;97506.88;5054493;28;20142;-61
2022/05/09 08:28:39;;;;;;;4.10;3.17;;;;;;;20.70;44.21;97444.53;5055191;28;20049;-59
2022/05/09 08:31:06;;;;;;;4.97;2.33;;;;;;;21.14;43.28;97502.56;5053344;28;20044;-59
2022/05/09 08:33:33;;;;;;;2.58;2.28;;;;;;;21.07;42.45;97480.94;5052418;28;20521;-59
2022/05/09 08:36:02;;;;;;;3.83;2.55;;;;;;;21.36;41.06;97504.59;5048364;28;20060;-61
2022/05/09 08:38:29;;;;;;;4.53;2.10;;;;;;;21.23;41.41;97463.38;5050660;28;20338;-61
2022/05/09 08:41:07;;;;;;;4.57;2.20;;;;;;;21.83;41.71;97496.88;5051170;28;20171;-61
2022/05/09 08:43:44;;;;;;;4.15;3.10;;;;;;;21.12;43.78;97500.16;5058768;28;20133;-60
2022/05/09 08:46:39;;;;;;;5.57;2.65;;;;;;;20.98;43.06;97505.28;5055739;28;20507;-60
2022/05/09 08:49:34;;;;;;;6.18;2.60;;;;;;;20.56;42.78;97501.88;5053736;28;20084;-61
2022/05/09 08:52:16;;;;;;;5.30;3.30;;;;;;;19.67;43.90;97505.41;5062990;28;20067;-59
2022/05/09 08:54:43;;;;;;;4.57;2.72;;;;;;;19.89;44.63;97498.31;5049221;28;20071;-61
2022/05/09 08:57:16;;;;;;;4.93;2.88;;;;;;;20.29;42.55;97514.31;5054764;28;20394;-61
2022/05/09 09:00:02;;;;;;;5.00;3.03;;;;;;;20.12;43.86;97454.22;5051697;28;20059;-62
2022/05/09 09:03:00;;;;;;;6.43;3.28;;;;;;;20.90;43.76;97502.53;5057461;28;20056;-58
2022/05/09 09:05:33;;;;;;;5.88;3.70;;;;;;;20.74;42.36;97504.38;5054999;28;20053;-61
2022/05/09 09:08:00;;;;;;;;;;;;;;;21.02;41.34;97506.00;5052653;28;20056;-60
2022/05/09 09:10:43;;;;;;;6.40;2.83;;;;;;;21.10;41.42;97497.00;5057323;28;20631;-60
2022/05/09 09:13:24;;;;;;;3.47;2.83;;;;;;;21.09;42.87;97503.84;5045203;28;20056;-61
2022/05/09 09:15:56;;;;;;;4.72;2.80;;;;;;;21.07;42.64;97485.78;5043952;28;20052;-61
2022/05/09 09:18:49;;;;;;;4.65;2.95;;;;;;;21.02;42.38;97489.91;5043266;28;20084;-62
2022/05/09 09:21:34;;;;;;;5.00;3.13;;;;;;;21.11;42.22;97498.59;5042771;28;20057;-60
2022/05/09 09:24:25;;;;;;;5.40;3.10;;;;;;;20.75;42.31;97486.28;5045436;28;20060;-61
2022/05/09 09:27:06;;;;;;;4.10;3.10;;;;;;;20.12;43.55;97495.63;5045908;28;20059;-60
2022/05/09 09:29:44;;;;;;;7.22;2.75;;;;;;;19.88;42.95;97443.31;5045564;28;20489;-61
2022/05/09 09:32:14;;;;;;;5.63;3.42;;;;;;;20.68;43.24;97487.19;5047119;28;20366;-62
2022/05/09 09:34:47;;;;;;;5.05;2.97;;;;;;;20.31;42.73;97489.38;5049942;28;20397;-61
2022/05/09 09:37:36;;;;;;;5.45;3.40;;;;;;;20.31;41.44;97480.94;5051246;28;20040;-61
2022/05/09 09:40:04;;;;;;;4.78;2.72;;;;;;;20.44;42.73;97482.72;5053229;28;20052;-61
2022/05/09 09:42:32;;;;;;;6.43;2.85;;;;;;;20.78;43.06;97441.19;5051602;28;20053;-60
2022/05/09 09:45:03;;;;;;;3.88;3.15;;;;;;;20.94;41.67;97415.16;5050234;28;20053;-61
2022/05/09 09:47:31;;;;;;;3.90;3.28;;;;;;;19.94;41.41;97256.00;5051779;28;20043;-61
2022/05/09 09:50:24;;;;;;;5.90;2.92;;;;;;;20.91;42.01;97472.34;5058853;28;20056;-61
2022/05/09 09:52:57;;;;;;;3.80;3.13;;;;;;;20.69;40.42;97310.63;5056248;28;20041;-62
2022/05/09 09:55:26;;;;;;;4.78;3.30;;;;;;;21.53;41.29;97472.44;5050082;28;20044;-60
2022/05/09 09:57:55;;;;;;;5.00;2.95;;;;;;;21.95;40.23;97463.19;5055315;28;20066;-63
2022/05/09 10:00:34;;;;;;;7.57;3.60;;;;;;;21.90;40.56;97466.50;5061053;28;20061;-59
2022/05/09 10:03:17;;;;;;;4.50;3.38;;;;;;;22.39;39.21;97442.84;5054097;28;20503;-61
2022/05/09 10:05:47;;;;;;;6.70;3.28;;;;;;;22.59;38.83;97461.78;5051914;28;20106;-64
2022/05/09 10:08:36;;;;;;;5.30;3.45;;;;;;;22.40;38.42;97387.16;5058971;28;20055;-64
2022/05/09 10:11:23;;;;;;;4.43;3.08;;;;;;;22.06;38.51;97480.69;5052248;28;20052;-63
2022/05/09 10:13:53;;;;;;;5.32;2.90;;;;;;;22.40;37.37;97466.19;5053559;28;20059;-64
2022/05/09 10:16:31;;;;;;;4.32;2.83;;;;;;;22.87;36.30;97458.28;5054312;28;20056;-65
2022/05/09 10:19:00;;;;;;;3.75;2.60;;;;;;;22.90;36.04;97461.00;5050019;28;20081;-61
2022/05/09 10:24:55;;;;;;;3.83;3.25;;;;;;;23.60;37.26;97455.56;5050611;28;20590;-62
2022/05/09 10:27:22;;;;;;;6.55;3.72;;;;;;;23.39;35.40;97453.31;5046132;28;20060;-61
2022/05/09 10:29:53;;;;;;;5.60;3.10;;;;;;;22.85;36.21;97378.81;5008235;28;21131;-65
2022/05/09 10:32:55;;;;;;;4.50;3.60;;;;;;;22.60;35.03;97327.81;5005831;28;20045;-60
2022/05/09 10:35:40;;;;;;;4.28;2.85;;;;;;;23.20;32.78;97440.06;5009126;28;20053;-61
2022/05/09 10:38:15;;;;;;;5.03;2.92;;;;;;;23.57;33.56;97442.28;5009142;28;20056;-62
2022/05/09 10:40:54;;;;;;;5.15;3.00;;;;;;;23.27;31.74;97439.88;5002244;28;20060;-60
2022/05/09 10:43:36;;;;;;;4.93;3.03;;;;;;;22.73;33.53;97393.66;5009693;28;20507;-63
2022/05/09 10:46:10;;;;;;;4.75;3.22;;;;;;;22.80;35.08;97435.84;5012433;28;20533;-63
2022/05/09 10:49:10;;;;;;;3.33;2.55;;;;;;;23.16;32.46;97428.03;5011572;28;20544;-59
2022/05/09 10:51:52;;;;;;;8.68;3.08;;;;;;;21.97;35.14;97228.56;5002550;28;20053;-66
2022/05/09 10:54:36;;;;;;;3.13;2.65;;;;;;;22.20;31.09;97381.59;5006661;28;20535;-63
2022/05/09 10:57:32;;;;;;;6.47;3.38;;;;;;;22.76;32.29;97429.50;5015399;28;20075;-60
2022/05/09 11:00:18;;;;;;;3.67;2.40;;;;;;;23.73;31.01;97399.81;4995815;28;20048;-60
2022/05/09 11:03:17;;;;;;;3.53;2.50;;;;;;;23.42;30.46;97430.59;5002574;28;20494;-62
2022/05/09 11:05:48;;;;;;;4.03;3.05;;;;;;;23.36;33.48;97421.03;4997607;28;20364;-62
2022/05/09 11:08:21;;;;;;;5.97;2.53;;;;;;;23.11;31.39;97431.41;5007739;28;20095;-64
2022/05/09 11:11:16;;;;;;;4.07;2.83;;;;;;;23.65;32.28;97426.69;5003226;28;20061;-65
2022/05/09 11:14:30;;;;;;;3.08;2.10;;;;;;;23.59;31.65;97420.00;5004470;28;20052;-66
2022/05/09 11:17:28;;;;;;;9.27;3.75;;;;;;;24.00;33.14;97414.38;5002249;28;20049;-63
2022/05/09 11:20:28;;;;;;;3.25;2.40;;;;;;;24.42;30.01;97424.41;5009587;28;20175;-61
2022/05/09 11:23:28;;;;;;;4.80;2.90;;;;;;;23.49;28.14;97153.22;5000407;28;20063;-63
2022/05/09 11:26:16;;;;;;;2.47;2.28;;;;;;;25.65;27.10;97408.91;5002505;28;20546;-62
2022/05/09 11:29:10;;;;;;;6.07;3.75;;;;;;;24.70;26.98;97236.53;5011126;28;20064;-62
2022/05/09 11:31:55;;;;;;;7.20;3.92;;;;;;;25.74;27.14;97406.13;5000833;28;20048;-63
2022/05/09 11:34:45;;;;;;;2.55;2.10;;;;;;;24.61;26.23;97414.88;5010543;28;20858;-60
2022/05/09 11:37:19;;;;;;;3.42;3.05;;;;;;;25.26;26.76;97410.25;5013246;28;20045;-67
2022/05/09 11:39:54;;;;;;;3.20;2.40;;;;;;;25.50;26.23;97404.22;5013691;28;20409;-66
2022/05/09 11:46:23;;;;;;;2.47;2.28;;;;;;;25.60;25.70;97395.31;5009712;28;20574;-64
2022/05/09 11:48:59;;;;;;;6.30;2.72;;;;;;;25.31;26.63;97395.50;5011373;28;20132;-65
2022/05/09 11:55:18;;;;;;;5.35;3.00;;;;;;;25.64;28.18;97395.19;5024015;28;20064;-65
2022/05/09 11:57:49;;;;;;;3.00;2.75;;;;;;;25.19;28.59;97348.13;5054036;28;20441;-64
2022/05/09 12:00:28;;;;;;;5.70;2.85;;;;;;;25.84;28.48;97387.13;5059356;28;20056;-62
2022/05/09 12:03:05;;;;;;;4.32;2.90;;;;;;;25.99;28.82;97354.06;5049968;28;20052;-69
2022/05/09 12:05:32;;;;;;;7.85;2.53;;;;;;;26.53;28.37;97377.09;5051266;28;20045;-64
2022/05/09 12:08:13;;;;;;;4.18;3.58;;;;;;;26.67;28.02;97363.13;5061511;28;20044;-64
2022/05/09 12:10:43;;;;;;;4.03;3.65;;;;;;;25.64;28.98;97329.91;5064441;28;20045;-66
2022/05/09 12:13:25;;;;;;;2.88;2.67;;;;;;;25.21;28.95;97379.66;5056103;28;20102;-69
2022/05/09 12:15:57;;;;;;;4.32;3.00;;;;;;;25.23;28.48;97319.63;5057020;28;20049;-65